createdAt,value
2023-05-07T00:02:13.092Z,6.13
2023-05-07T00:04:40.605Z,5.17
2023-05-07T00:07:08.054Z,5.30
2023-05-07T00:09:35.553Z,4.63
2023-05-07T00:12:03.629Z,3.40
2023-05-07T00:14:31.167Z,4.47
2023-05-07T00:16:58.805Z,4.40
2023-05-07T00:19:26.463Z,4.27
2023-05-07T00:21:57.600Z,4.30
2023-05-07T00:24:25.260Z,4.23
2023-05-07T00:26:53.831Z,4.53
2023-05-07T00:29:21.332Z,4.33
2023-05-07T00:31:51.724Z,4.67
2023-05-07T00:34:19.955Z,4.40
2023-05-07T00:36:47.651Z,4.37
2023-05-07T00:39:15.238Z,4.70
2023-05-07T00:41:42.913Z,5.00
2023-05-07T00:44:10.447Z,5.00
2023-05-07T00:46:38.034Z,4.87
2023-05-07T00:49:06.466Z,5.17
2023-05-07T00:51:34.626Z,5.20
2023-05-07T00:54:04.419Z,5.00
2023-05-07T00:56:33.126Z,4.80
2023-05-07T00:59:02.867Z,5.17
2023-05-07T01:01:31.073Z,5.10
2023-05-07T01:03:58.884Z,5.10
2023-05-07T01:06:28.962Z,4.93
2023-05-07T01:08:58.582Z,4.67
2023-05-07T01:11:26.706Z,4.80
2023-05-07T01:13:54.555Z,5.00
2023-05-07T01:16:22.800Z,4.60
2023-05-07T01:18:50.750Z,4.47
2023-05-07T01:21:19.669Z,4.30
2023-05-07T01:23:48.572Z,4.60
2023-05-07T01:26:16.275Z,4.33
2023-05-07T01:28:43.791Z,4.30
2023-05-07T01:31:11.707Z,4.33
2023-05-07T01:33:42.170Z,4.57
2023-05-07T01:36:11.581Z,4.60
2023-05-07T01:38:40.733Z,4.57
2023-05-07T01:41:08.954Z,4.87
2023-05-07T01:43:36.569Z,5.13
2023-05-07T01:46:05.087Z,5.10
2023-05-07T01:48:33.621Z,5.17
2023-05-07T01:51:01.994Z,5.33
2023-05-07T01:53:29.835Z,5.40
2023-05-07T01:55:57.373Z,5.60
2023-05-07T01:58:24.864Z,5.53
2023-05-07T02:00:53.062Z,5.37
2023-05-07T02:03:20.646Z,6.30
2023-05-07T02:05:48.167Z,5.50
2023-05-07T02:08:15.741Z,5.47
2023-05-07T02:10:43.209Z,5.33
2023-05-07T02:13:10.838Z,5.50
2023-05-07T02:15:38.592Z,5.73
2023-05-07T02:18:10.179Z,5.97
2023-05-07T02:20:37.619Z,5.80
2023-05-07T02:23:05.124Z,5.77
2023-05-07T02:25:32.563Z,5.80
2023-05-07T02:28:00.040Z,5.97
2023-05-07T02:30:27.756Z,5.53
2023-05-07T02:32:55.294Z,6.20
2023-05-07T02:35:22.875Z,6.10
2023-05-07T02:37:50.409Z,5.90
2023-05-07T02:40:18.077Z,5.40
2023-05-07T02:42:45.529Z,6.40
2023-05-07T02:45:13.484Z,6.07
2023-05-07T02:47:41.836Z,5.77
2023-05-07T02:50:09.818Z,6.47
2023-05-07T02:52:37.488Z,6.17
2023-05-07T02:55:05.615Z,5.63
2023-05-07T02:57:33.112Z,6.13
2023-05-07T03:00:00.668Z,6.10
2023-05-07T03:02:28.163Z,6.30
2023-05-07T03:04:55.616Z,8.20
2023-05-07T03:07:23.147Z,8.83
2023-05-07T03:09:50.762Z,10.53
2023-05-07T03:12:18.194Z,17.30
2023-05-07T03:14:45.742Z,14.93
2023-05-07T03:17:13.179Z,47.67
2023-05-07T03:19:40.644Z,8.53
2023-05-07T03:22:08.133Z,9.50
2023-05-07T03:24:35.646Z,15.80
2023-05-07T03:27:03.183Z,10.80
2023-05-07T03:29:30.892Z,7.83
2023-05-07T03:31:58.361Z,8.50
2023-05-07T03:34:26.085Z,7.17
2023-05-07T03:36:53.777Z,7.77
2023-05-07T03:39:21.265Z,6.77
2023-05-07T03:41:48.952Z,7.30
2023-05-07T03:44:16.487Z,7.13
2023-05-07T03:46:44.585Z,6.93
2023-05-07T03:49:12.236Z,6.80
2023-05-07T03:51:39.706Z,6.63
2023-05-07T03:54:07.206Z,6.63
2023-05-07T03:56:34.697Z,6.37
2023-05-07T03:59:02.934Z,5.90
2023-05-07T04:01:30.664Z,6.07
2023-05-07T04:03:58.489Z,5.87
2023-05-07T04:06:26.014Z,5.97
2023-05-07T04:08:53.447Z,5.93
2023-05-07T04:11:21.541Z,5.50
2023-05-07T04:13:48.999Z,5.27
2023-05-07T04:16:16.532Z,5.40
2023-05-07T04:18:44.090Z,5.10
2023-05-07T04:21:22.465Z,5.40
2023-05-07T04:23:50.700Z,5.20
2023-05-07T04:26:18.191Z,4.90
2023-05-07T04:28:45.967Z,4.50
2023-05-07T04:31:13.472Z,4.97
2023-05-07T04:33:41.296Z,4.80
2023-05-07T04:36:09.109Z,4.90
2023-05-07T04:38:37.212Z,4.77
2023-05-07T04:41:07.152Z,4.87
2023-05-07T04:43:34.666Z,4.20
2023-05-07T04:46:02.313Z,4.73
2023-05-07T04:48:30.329Z,4.40
2023-05-07T04:50:57.874Z,4.50
2023-05-07T04:53:25.825Z,4.43
2023-05-07T04:55:58.105Z,4.87
2023-05-07T04:58:26.159Z,4.37
2023-05-07T05:00:53.714Z,4.70
2023-05-07T05:03:21.358Z,4.30
2023-05-07T05:05:52.756Z,4.37
2023-05-07T05:08:20.481Z,4.37
2023-05-07T05:10:49.948Z,4.43
2023-05-07T05:13:17.551Z,4.40
2023-05-07T05:15:45.286Z,4.07
2023-05-07T05:18:12.784Z,4.20
2023-05-07T05:20:40.319Z,4.67
2023-05-07T05:23:09.101Z,4.40
2023-05-07T05:25:36.601Z,4.27
2023-05-07T05:28:04.736Z,4.40
2023-05-07T05:30:32.220Z,4.57
2023-05-07T05:32:59.690Z,5.20
2023-05-07T05:35:27.356Z,4.77
2023-05-07T05:37:54.847Z,5.17
2023-05-07T05:40:22.448Z,4.73
2023-05-07T05:42:50.041Z,5.90
2023-05-07T05:45:17.594Z,5.33
2023-05-07T05:47:45.117Z,4.90
2023-05-07T05:50:13.020Z,4.53
2023-05-07T05:52:42.028Z,5.07
2023-05-07T05:55:10.219Z,6.13
2023-05-07T05:57:37.800Z,4.70
2023-05-07T06:00:06.415Z,4.03
2023-05-07T06:02:34.131Z,4.17
2023-05-07T06:05:01.990Z,4.73
2023-05-07T06:07:29.483Z,4.73
2023-05-07T06:09:57.061Z,4.60
2023-05-07T06:12:24.546Z,4.43
2023-05-07T06:14:52.192Z,4.93
2023-05-07T06:17:21.596Z,4.50
2023-05-07T06:19:49.519Z,4.30
2023-05-07T06:22:16.998Z,4.53
2023-05-07T06:24:44.595Z,3.93
2023-05-07T06:27:12.196Z,4.67
2023-05-07T06:29:39.679Z,4.53
2023-05-07T06:32:15.242Z,4.13
2023-05-07T06:34:42.943Z,4.57
2023-05-07T06:37:10.405Z,3.90
2023-05-07T06:39:37.962Z,3.10
2023-05-07T06:42:05.902Z,3.50
2023-05-07T06:44:33.607Z,5.07
2023-05-07T06:47:01.340Z,5.57
2023-05-07T06:49:28.903Z,4.30
2023-05-07T06:51:56.764Z,4.30
2023-05-07T06:54:24.558Z,2.80
2023-05-07T06:56:52.076Z,3.07
2023-05-07T06:59:20.563Z,3.10
2023-05-07T07:01:48.083Z,3.40
2023-05-07T07:04:15.895Z,4.37
2023-05-07T07:06:43.379Z,4.13
2023-05-07T07:09:10.843Z,4.33
2023-05-07T07:11:38.307Z,5.47
2023-05-07T07:14:07.056Z,4.73
2023-05-07T07:16:34.649Z,5.77
2023-05-07T07:19:02.272Z,8.10
2023-05-07T07:21:29.835Z,5.80
2023-05-07T07:23:57.359Z,4.77
2023-05-07T07:26:24.988Z,3.97
2023-05-07T07:28:52.409Z,4.80
2023-05-07T07:31:19.903Z,4.23
2023-05-07T07:33:47.497Z,4.17
2023-05-07T07:36:14.986Z,4.30
2023-05-07T07:38:42.497Z,4.30
2023-05-07T07:41:10.563Z,4.20
2023-05-07T07:43:38.060Z,4.17
2023-05-07T07:46:05.653Z,4.73
2023-05-07T07:48:33.177Z,4.37
2023-05-07T07:51:00.721Z,4.50
2023-05-07T07:53:28.166Z,4.43
2023-05-07T07:55:59.583Z,3.80
2023-05-07T07:58:27.409Z,4.33
2023-05-07T08:00:57.131Z,4.30
2023-05-07T08:03:25.306Z,4.93
2023-05-07T08:05:52.924Z,4.60
2023-05-07T08:08:20.364Z,4.60
2023-05-07T08:10:51.110Z,5.30
2023-05-07T08:13:19.651Z,5.07
2023-05-07T08:15:47.330Z,6.33
2023-05-07T08:18:14.882Z,5.33
2023-05-07T08:20:42.703Z,6.00
2023-05-07T08:23:10.345Z,5.77
2023-05-07T08:25:38.698Z,4.80
2023-05-07T08:28:08.357Z,4.97
2023-05-07T08:30:37.266Z,4.30
2023-05-07T08:33:05.023Z,4.40
2023-05-07T08:35:32.636Z,3.87
2023-05-07T08:38:00.198Z,3.40
2023-05-07T08:40:28.252Z,4.23
2023-05-07T08:42:56.663Z,4.27
2023-05-07T08:45:24.898Z,4.70
2023-05-07T08:48:00.281Z,5.77
2023-05-07T08:50:27.962Z,6.43
2023-05-07T08:52:55.783Z,6.60
2023-05-07T08:55:24.094Z,6.40
2023-05-07T08:57:53.832Z,5.43
2023-05-07T09:00:21.627Z,4.40
2023-05-07T09:02:49.370Z,5.90
2023-05-07T09:05:16.986Z,7.43
2023-05-07T09:07:44.496Z,6.07
2023-05-07T09:10:12.569Z,5.17
2023-05-07T09:12:41.105Z,4.93
2023-05-07T09:15:09.940Z,5.13
2023-05-07T09:17:37.683Z,4.43
2023-05-07T09:20:08.559Z,3.70
2023-05-07T09:22:41.170Z,3.90
2023-05-07T09:25:10.637Z,4.50
2023-05-07T09:27:38.617Z,4.17
2023-05-07T09:30:08.315Z,4.10
2023-05-07T09:32:39.394Z,4.07
2023-05-07T09:35:07.948Z,4.33
2023-05-07T09:37:35.768Z,4.70
2023-05-07T09:40:04.311Z,4.40
2023-05-07T09:42:31.893Z,3.70
2023-05-07T09:45:01.057Z,3.70
2023-05-07T09:47:34.799Z,3.57
2023-05-07T09:50:08.685Z,3.70
2023-05-07T09:52:37.183Z,6.30
2023-05-07T09:55:07.236Z,5.17
2023-05-07T09:57:36.343Z,6.00
2023-05-07T10:00:09.615Z,5.23
2023-05-07T10:02:38.403Z,4.50
2023-05-07T10:05:06.698Z,4.77
2023-05-07T10:07:34.391Z,3.67
2023-05-07T10:10:02.746Z,4.30
2023-05-07T10:12:36.629Z,4.27
2023-05-07T10:15:06.222Z,3.90
2023-05-07T10:17:37.932Z,3.73
2023-05-07T10:20:08.417Z,3.13
2023-05-07T10:22:45.329Z,4.03
2023-05-07T10:25:31.333Z,3.30
2023-05-07T10:28:07.686Z,3.33
2023-05-07T10:30:50.264Z,4.00
2023-05-07T10:33:21.390Z,3.90
2023-05-07T10:35:49.602Z,4.50
2023-05-07T10:38:17.970Z,2.97
2023-05-07T10:40:47.769Z,3.77
2023-05-07T10:43:15.913Z,3.73
2023-05-07T10:45:43.400Z,3.47
2023-05-07T10:50:48.715Z,3.53
2023-05-07T10:53:19.091Z,3.17
2023-05-07T10:55:50.153Z,3.17
2023-05-07T10:58:32.023Z,3.10
2023-05-07T11:01:03.950Z,3.10
2023-05-07T11:03:31.643Z,3.70
2023-05-07T11:06:17.872Z,3.87
2023-05-07T11:08:54.151Z,3.23
2023-05-07T11:11:48.885Z,3.40
2023-05-07T11:14:46.341Z,3.53
2023-05-07T11:17:14.060Z,3.23
2023-05-07T11:19:53.697Z,3.07
2023-05-07T11:22:33.144Z,3.27
2023-05-07T11:25:08.155Z,3.60
2023-05-07T11:27:36.021Z,3.10
2023-05-07T11:30:04.012Z,2.77
2023-05-07T11:32:33.713Z,4.07
2023-05-07T11:35:02.300Z,3.83
2023-05-07T11:37:31.575Z,3.50
2023-05-07T11:40:07.963Z,7.23
2023-05-07T11:42:38.809Z,3.90
2023-05-07T11:45:08.455Z,4.03
2023-05-07T11:47:36.379Z,3.50
2023-05-07T11:50:09.370Z,3.23
2023-05-07T11:52:37.178Z,3.30
2023-05-07T11:55:05.852Z,3.60
2023-05-07T11:57:35.788Z,4.33
2023-05-07T12:00:05.916Z,5.13
2023-05-07T12:02:33.618Z,3.60
2023-05-07T12:05:02.519Z,3.50
2023-05-07T12:07:30.062Z,3.20
2023-05-07T12:09:57.654Z,2.87
2023-05-07T12:12:25.127Z,4.30
2023-05-07T12:14:53.301Z,3.93
2023-05-07T12:17:20.908Z,3.03
2023-05-07T12:19:48.909Z,3.73
2023-05-07T12:22:16.437Z,4.03
2023-05-07T12:24:48.891Z,4.30
2023-05-07T12:27:17.978Z,3.40
2023-05-07T12:29:50.304Z,4.50
2023-05-07T12:32:24.013Z,4.70
2023-05-07T12:34:52.770Z,3.90
2023-05-07T12:37:26.582Z,4.40
2023-05-07T12:40:12.492Z,6.70
2023-05-07T12:42:41.973Z,5.90
2023-05-07T12:45:15.222Z,10.80
2023-05-07T12:47:47.347Z,5.60
2023-05-07T12:50:16.648Z,3.50
2023-05-07T12:52:50.987Z,4.67
2023-05-07T12:55:19.133Z,3.53
2023-05-07T12:57:51.707Z,4.30
2023-05-07T13:00:36.226Z,4.40
2023-05-07T13:03:03.874Z,4.87
2023-05-07T13:05:31.956Z,4.90
2023-05-07T13:08:00.015Z,4.50
2023-05-07T13:10:28.394Z,3.97
2023-05-07T13:12:56.062Z,4.70
2023-05-07T13:15:24.422Z,4.77
2023-05-07T13:17:51.991Z,3.80
2023-05-07T13:20:19.655Z,3.80
2023-05-07T13:22:47.118Z,3.87
2023-05-07T13:25:14.939Z,3.70
2023-05-07T13:27:42.673Z,4.03
2023-05-07T13:30:10.387Z,4.23
2023-05-07T13:32:37.896Z,5.10
2023-05-07T13:35:05.902Z,3.43
2023-05-07T13:37:33.382Z,4.17
2023-05-07T13:40:00.886Z,3.43
2023-05-07T13:42:28.377Z,2.80
2023-05-07T13:44:55.860Z,3.30
2023-05-07T13:47:24.653Z,12.57
2023-05-07T13:49:52.570Z,6.80
2023-05-07T13:52:21.350Z,9.70
2023-05-07T13:54:48.885Z,5.10
2023-05-07T13:57:16.485Z,5.23
2023-05-07T13:59:44.311Z,5.57
2023-05-07T14:02:12.431Z,6.40
2023-05-07T14:04:39.915Z,4.33
2023-05-07T14:07:07.458Z,4.33
2023-05-07T14:09:34.913Z,4.63
2023-05-07T14:12:02.622Z,4.90
2023-05-07T14:14:30.162Z,4.73
2023-05-07T14:16:58.489Z,5.10
2023-05-07T14:19:26.112Z,5.87
2023-05-07T14:21:53.703Z,5.83
2023-05-07T14:24:34.492Z,3.80
2023-05-07T14:27:05.601Z,4.03
2023-05-07T14:29:33.058Z,4.47
2023-05-07T14:32:00.558Z,4.97
2023-05-07T14:34:27.983Z,4.17
2023-05-07T14:36:55.460Z,4.33
2023-05-07T14:39:23.187Z,4.43
2023-05-07T14:41:50.911Z,3.43
2023-05-07T14:44:18.372Z,4.30
2023-05-07T14:46:45.985Z,4.57
2023-05-07T14:49:18.247Z,3.27
2023-05-07T14:51:47.621Z,3.50
2023-05-07T14:54:15.772Z,3.40
2023-05-07T14:56:43.872Z,3.30
2023-05-07T14:59:11.714Z,3.20
2023-05-07T15:01:41.582Z,3.73
2023-05-07T15:04:09.174Z,3.87
2023-05-07T15:06:36.704Z,8.80
2023-05-07T15:09:04.328Z,4.50
2023-05-07T15:11:31.802Z,10.03
2023-05-07T15:14:00.152Z,13.23
2023-05-07T15:16:27.894Z,4.40
2023-05-07T15:18:55.410Z,8.17
2023-05-07T15:21:22.928Z,5.23
2023-05-07T15:23:50.404Z,7.40
2023-05-07T15:26:17.880Z,4.33
2023-05-07T15:28:45.306Z,3.90
2023-05-07T15:31:12.887Z,4.37
2023-05-07T15:33:41.943Z,3.77
2023-05-07T15:36:09.713Z,3.63
2023-05-07T15:38:37.318Z,5.30
2023-05-07T15:41:04.808Z,4.70
2023-05-07T15:43:32.510Z,4.40
2023-05-07T15:46:01.348Z,4.97
2023-05-07T15:48:29.600Z,7.47
2023-05-07T15:50:57.076Z,4.93
2023-05-07T15:53:24.581Z,4.83
2023-05-07T15:55:52.034Z,5.10
2023-05-07T15:58:21.322Z,4.27
2023-05-07T16:00:48.992Z,4.60
2023-05-07T16:03:16.645Z,5.80
2023-05-07T16:05:44.353Z,4.37
2023-05-07T16:08:11.844Z,5.53
2023-05-07T16:10:39.378Z,4.60
2023-05-07T16:13:07.791Z,4.40
2023-05-07T16:15:35.377Z,4.20
2023-05-07T16:18:02.901Z,4.40
2023-05-07T16:20:31.042Z,4.37
2023-05-07T16:22:59.385Z,4.80
2023-05-07T16:25:27.039Z,5.20
2023-05-07T16:27:55.062Z,5.20
2023-05-07T16:30:22.811Z,9.33
2023-05-07T16:32:50.451Z,15.60
2023-05-07T16:35:18.207Z,7.50
2023-05-07T16:37:45.693Z,7.57
2023-05-07T16:40:13.651Z,10.47
2023-05-07T16:42:41.280Z,5.07
2023-05-07T16:45:09.733Z,6.43
2023-05-07T16:47:37.544Z,5.13
2023-05-07T16:50:05.979Z,4.60
2023-05-07T16:52:33.629Z,4.13
2023-05-07T16:55:01.787Z,7.60
2023-05-07T16:57:32.793Z,7.77
2023-05-07T17:00:00.660Z,12.30
2023-05-07T17:02:28.451Z,15.17
2023-05-07T17:04:56.039Z,15.23
2023-05-07T17:07:23.541Z,11.97
2023-05-07T17:09:50.986Z,6.67
2023-05-07T17:12:18.431Z,12.87
2023-05-07T17:14:45.913Z,6.40
2023-05-07T17:17:13.448Z,7.87
2023-05-07T17:19:41.110Z,6.67
2023-05-07T17:22:08.948Z,11.13
2023-05-07T17:24:36.757Z,5.53
2023-05-07T17:27:04.475Z,5.50
2023-05-07T17:29:31.980Z,4.70
2023-05-07T17:31:59.649Z,4.70
2023-05-07T17:34:27.384Z,4.30
2023-05-07T17:36:54.901Z,5.90
2023-05-07T17:39:22.378Z,5.33
2023-05-07T17:41:49.886Z,4.63
2023-05-07T17:44:18.317Z,4.50
2023-05-07T17:46:46.141Z,5.40
2023-05-07T17:49:15.539Z,6.90
2023-05-07T17:51:53.297Z,7.07
2023-05-07T17:54:22.289Z,7.30
2023-05-07T17:56:49.833Z,10.10
2023-05-07T17:59:17.347Z,10.13
2023-05-07T18:01:45.128Z,8.47
2023-05-07T18:04:12.770Z,7.07
2023-05-07T18:06:42.266Z,9.97
2023-05-07T18:09:09.966Z,7.27
2023-05-07T18:11:38.097Z,6.83
2023-05-07T18:14:05.831Z,6.77
2023-05-07T18:16:33.536Z,4.63
2023-05-07T18:19:01.130Z,7.83
2023-05-07T18:21:28.633Z,6.97
2023-05-07T18:23:56.184Z,8.43
2023-05-07T18:26:23.675Z,5.93
2023-05-07T18:28:51.259Z,7.80
2023-05-07T18:31:18.819Z,7.97
2023-05-07T18:33:46.361Z,6.17
2023-05-07T18:36:13.823Z,5.30
2023-05-07T18:38:42.773Z,5.13
2023-05-07T18:41:10.287Z,5.63
2023-05-07T18:43:37.789Z,6.53
2023-05-07T18:46:06.228Z,7.10
2023-05-07T18:48:33.757Z,7.00
2023-05-07T18:51:01.214Z,8.37
2023-05-07T18:53:29.278Z,8.83
2023-05-07T18:55:56.755Z,9.13
2023-05-07T18:58:24.330Z,9.60
2023-05-07T19:00:51.912Z,22.57
2023-05-07T19:03:19.426Z,11.83
2023-05-07T19:05:46.964Z,16.93
2023-05-07T19:08:14.931Z,13.50
2023-05-07T19:10:42.468Z,10.70
2023-05-07T19:13:10.006Z,8.00
2023-05-07T19:15:37.618Z,9.47
2023-05-07T19:18:05.404Z,8.07
2023-05-07T19:20:32.933Z,8.63
2023-05-07T19:23:00.512Z,11.27
2023-05-07T19:25:28.093Z,11.70
2023-05-07T19:27:56.799Z,7.93
2023-05-07T19:30:24.435Z,11.73
2023-05-07T19:32:52.041Z,9.63
2023-05-07T19:35:19.894Z,10.60
2023-05-07T19:37:47.763Z,9.17
2023-05-07T19:40:15.368Z,10.23
2023-05-07T19:42:42.876Z,12.60
2023-05-07T19:45:11.468Z,12.50
2023-05-07T19:47:39.155Z,9.87
2023-05-07T19:50:07.777Z,8.37
2023-05-07T19:52:37.247Z,8.43
2023-05-07T19:55:05.261Z,8.90
2023-05-07T19:57:32.733Z,7.50
2023-05-07T20:00:00.974Z,6.60
2023-05-07T20:02:28.731Z,6.10
2023-05-07T20:04:56.370Z,9.33
2023-05-07T20:07:23.861Z,5.40
2023-05-07T20:09:51.376Z,6.20
2023-05-07T20:12:18.822Z,6.43
2023-05-07T20:14:46.308Z,6.27
2023-05-07T20:17:14.137Z,8.10
2023-05-07T20:19:41.727Z,8.00
2023-05-07T20:22:09.243Z,6.73
2023-05-07T20:24:39.931Z,7.10
2023-05-07T20:27:07.819Z,7.60
2023-05-07T20:29:35.423Z,6.00
2023-05-07T20:32:03.703Z,5.77
2023-05-07T20:34:31.282Z,6.33
2023-05-07T20:36:58.852Z,5.57
2023-05-07T20:39:26.420Z,6.27
2023-05-07T20:41:54.486Z,6.40
2023-05-07T20:44:22.227Z,6.10
2023-05-07T20:46:50.106Z,5.80
2023-05-07T20:49:17.803Z,5.70
2023-05-07T20:51:45.294Z,6.00
2023-05-07T20:54:14.741Z,7.50
2023-05-07T20:56:42.324Z,6.37
2023-05-07T20:59:10.073Z,8.53
2023-05-07T21:01:37.841Z,6.40
2023-05-07T21:04:05.458Z,6.97
2023-05-07T21:06:32.921Z,7.33
2023-05-07T21:09:00.455Z,6.80
2023-05-07T21:11:27.888Z,6.10
2023-05-07T21:13:55.444Z,6.97
2023-05-07T21:16:23.131Z,7.67
2023-05-07T21:18:50.700Z,8.23
2023-05-07T21:21:18.200Z,8.70
2023-05-07T21:23:45.785Z,8.77
2023-05-07T21:26:19.267Z,9.23
2023-05-07T21:28:46.897Z,9.07
2023-05-07T21:31:14.430Z,10.63
2023-05-07T21:33:43.994Z,10.27
2023-05-07T21:36:11.893Z,9.93
2023-05-07T21:38:39.753Z,9.43
2023-05-07T21:41:07.491Z,9.27
2023-05-07T21:43:34.943Z,7.80
2023-05-07T21:46:07.187Z,7.97
2023-05-07T21:48:34.968Z,8.43
2023-05-07T21:51:07.749Z,8.37
2023-05-07T21:53:36.248Z,7.60
2023-05-07T21:56:05.212Z,7.07
2023-05-07T21:58:32.849Z,6.70
2023-05-07T22:01:03.736Z,6.37
2023-05-07T22:03:31.377Z,6.20
2023-05-07T22:05:58.870Z,6.17
2023-05-07T22:08:26.405Z,6.53
2023-05-07T22:10:53.952Z,6.47
2023-05-07T22:13:21.686Z,6.67
2023-05-07T22:15:56.614Z,7.13
2023-05-07T22:18:25.771Z,8.97
2023-05-07T22:20:53.272Z,11.50
2023-05-07T22:23:20.763Z,14.70
2023-05-07T22:25:48.302Z,14.13
2023-05-07T22:28:16.110Z,14.57
2023-05-07T22:30:43.826Z,14.90
2023-05-07T22:33:11.317Z,13.40
2023-05-07T22:35:38.852Z,10.17
2023-05-07T22:38:06.330Z,10.03
2023-05-07T22:40:33.810Z,8.70
2023-05-07T22:43:01.835Z,9.50
2023-05-07T22:45:29.299Z,8.10
2023-05-07T22:47:56.800Z,8.50
2023-05-07T22:50:24.392Z,8.53
2023-05-07T22:52:51.895Z,9.63
2023-05-07T22:55:19.620Z,10.83
2023-05-07T22:57:47.142Z,17.70
2023-05-07T23:00:15.312Z,19.50
2023-05-07T23:02:43.052Z,16.33
2023-05-07T23:05:10.740Z,15.27
2023-05-07T23:07:38.383Z,9.60
2023-05-07T23:10:06.707Z,8.47
2023-05-07T23:12:34.218Z,7.57
2023-05-07T23:15:01.702Z,8.70
2023-05-07T23:17:29.894Z,8.10
2023-05-07T23:19:57.475Z,7.87
2023-05-07T23:22:25.106Z,6.87
2023-05-07T23:24:52.596Z,7.67
2023-05-07T23:27:20.087Z,7.23
2023-05-07T23:29:48.100Z,7.40
2023-05-07T23:32:15.650Z,6.97
2023-05-07T23:34:43.221Z,7.47
2023-05-07T23:37:11.219Z,7.37
2023-05-07T23:39:38.734Z,7.67
2023-05-07T23:42:06.632Z,8.03
2023-05-07T23:44:34.157Z,8.13
2023-05-07T23:47:01.734Z,8.70
2023-05-07T23:49:29.226Z,7.20
2023-05-07T23:51:56.784Z,7.73
2023-05-07T23:54:24.468Z,7.90
2023-05-07T23:56:51.978Z,7.87
2023-05-07T23:59:19.468Z,8.60
